Terminal Aerodrome Forecast
Issued by NWS Shreveport, LA

Current Version | Previous Version | Text Only | Print | Product List | Glossary On
Versions: 1 2 3 4 5 6 7 8 9 10 11 12 13 14 15 16 17
000
FTUS44 KSHV 261228 AAA
TAFMLU
TAF AMD
KMLU 261228Z 2612/2712 17008KT P6SM BKN015 OVC035
     FM261500 17014G21KT P6SM OVC020
     FM261700 18015G25KT P6SM BKN030
     FM262100 19017G27KT P6SM BKN035
     FM262300 20018G28KT P6SM VCTS OVC035CB
      TEMPO 2700/2704 VRB20G40KT 1SM +TSRA BR OVC015CB
     FM270600 28011KT P6SM SKC
     FM270900 30007KT P6SM SKC=

USA.gov is the U.S. government's official web portal to all federal, state and local government web resources and services.